sensor_id;sensor_type;location;lat;lon;timestamp;P1;durP1;ratioP1;P2;durP2;ratioP2
18224;SDS011;9237;48.590;8.854;2024-03-22T00:01:08;0.90;;;0.90;;
18224;SDS011;9237;48.590;8.854;2024-03-22T00:03:34;0.90;;;0.90;;
18224;SDS011;9237;48.590;8.854;2024-03-22T00:06:01;0.80;;;0.80;;
18224;SDS011;9237;48.590;8.854;2024-03-22T00:08:27;0.70;;;0.70;;
18224;SDS011;9237;48.590;8.854;2024-03-22T00:10:54;0.80;;;0.80;;
18224;SDS011;9237;48.590;8.854;2024-03-22T00:13:20;0.80;;;0.80;;
18224;SDS011;9237;48.590;8.854;2024-03-22T00:15:47;0.80;;;0.80;;
18224;SDS011;9237;48.590;8.854;2024-03-22T00:18:14;0.80;;;0.80;;
18224;SDS011;9237;48.590;8.854;2024-03-22T00:20:41;0.80;;;0.80;;
18224;SDS011;9237;48.590;8.854;2024-03-22T00:23:06;0.80;;;0.80;;
18224;SDS011;9237;48.590;8.854;2024-03-22T00:25:33;0.80;;;0.80;;
18224;SDS011;9237;48.590;8.854;2024-03-22T00:27:59;0.70;;;0.70;;
18224;SDS011;9237;48.590;8.854;2024-03-22T00:30:26;0.80;;;0.80;;
18224;SDS011;9237;48.590;8.854;2024-03-22T00:32:51;0.80;;;0.80;;
18224;SDS011;9237;48.590;8.854;2024-03-22T00:35:20;0.80;;;0.80;;
18224;SDS011;9237;48.590;8.854;2024-03-22T00:37:45;0.80;;;0.80;;
18224;SDS011;9237;48.590;8.854;2024-03-22T00:40:12;0.70;;;0.70;;
18224;SDS011;9237;48.590;8.854;2024-03-22T00:42:38;0.70;;;0.70;;
18224;SDS011;9237;48.590;8.854;2024-03-22T00:45:05;0.73;;;0.73;;
18224;SDS011;9237;48.590;8.854;2024-03-22T00:47:31;0.80;;;0.80;;
18224;SDS011;9237;48.590;8.854;2024-03-22T00:49:58;0.80;;;0.80;;
18224;SDS011;9237;48.590;8.854;2024-03-22T00:52:25;0.80;;;0.80;;
18224;SDS011;9237;48.590;8.854;2024-03-22T00:54:52;0.70;;;0.70;;
18224;SDS011;9237;48.590;8.854;2024-03-22T00:57:18;0.80;;;0.80;;
18224;SDS011;9237;48.590;8.854;2024-03-22T00:59:44;0.70;;;0.70;;
18224;SDS011;9237;48.590;8.854;2024-03-22T01:02:10;0.70;;;0.70;;
18224;SDS011;9237;48.590;8.854;2024-03-22T01:04:37;0.73;;;0.73;;
18224;SDS011;9237;48.590;8.854;2024-03-22T01:07:03;0.90;;;0.90;;
18224;SDS011;9237;48.590;8.854;2024-03-22T01:09:31;0.90;;;0.90;;
18224;SDS011;9237;48.590;8.854;2024-03-22T01:11:57;0.80;;;0.80;;
18224;SDS011;9237;48.590;8.854;2024-03-22T01:14:23;0.80;;;0.80;;
18224;SDS011;9237;48.590;8.854;2024-03-22T01:16:49;0.80;;;0.80;;
18224;SDS011;9237;48.590;8.854;2024-03-22T01:19:16;0.70;;;0.70;;
18224;SDS011;9237;48.590;8.854;2024-03-22T01:21:42;0.70;;;0.70;;
18224;SDS011;9237;48.590;8.854;2024-03-22T01:24:08;0.70;;;0.70;;
18224;SDS011;9237;48.590;8.854;2024-03-22T01:26:36;0.80;;;0.80;;
18224;SDS011;9237;48.590;8.854;2024-03-22T01:29:02;0.90;;;0.90;;
18224;SDS011;9237;48.590;8.854;2024-03-22T01:31:28;0.90;;;0.90;;
18224;SDS011;9237;48.590;8.854;2024-03-22T01:33:55;0.90;;;0.90;;
18224;SDS011;9237;48.590;8.854;2024-03-22T01:36:21;0.70;;;0.70;;
18224;SDS011;9237;48.590;8.854;2024-03-22T01:38:47;0.90;;;0.90;;
18224;SDS011;9237;48.590;8.854;2024-03-22T01:41:13;1.00;;;1.00;;
18224;SDS011;9237;48.590;8.854;2024-03-22T01:43:41;0.80;;;0.80;;
18224;SDS011;9237;48.590;8.854;2024-03-22T01:46:07;0.80;;;0.80;;
18224;SDS011;9237;48.590;8.854;2024-03-22T01:48:34;0.90;;;0.90;;
18224;SDS011;9237;48.590;8.854;2024-03-22T01:51:00;0.80;;;0.80;;
18224;SDS011;9237;48.590;8.854;2024-03-22T01:53:28;0.80;;;0.80;;
18224;SDS011;9237;48.590;8.854;2024-03-22T01:55:54;0.80;;;0.80;;
18224;SDS011;9237;48.590;8.854;2024-03-22T01:58:20;0.90;;;0.90;;
18224;SDS011;9237;48.590;8.854;2024-03-22T02:00:48;0.90;;;0.90;;
18224;SDS011;9237;48.590;8.854;2024-03-22T02:03:15;0.90;;;0.90;;
18224;SDS011;9237;48.590;8.854;2024-03-22T02:05:41;0.80;;;0.80;;
18224;SDS011;9237;48.590;8.854;2024-03-22T02:08:08;0.80;;;0.80;;
18224;SDS011;9237;48.590;8.854;2024-03-22T02:10:34;0.80;;;0.80;;
18224;SDS011;9237;48.590;8.854;2024-03-22T02:13:01;0.70;;;0.70;;
18224;SDS011;9237;48.590;8.854;2024-03-22T02:15:27;0.90;;;0.90;;
18224;SDS011;9237;48.590;8.854;2024-03-22T02:17:56;0.87;;;0.87;;
18224;SDS011;9237;48.590;8.854;2024-03-22T02:20:22;0.90;;;0.90;;
18224;SDS011;9237;48.590;8.854;2024-03-22T02:22:48;0.80;;;0.80;;
18224;SDS011;9237;48.590;8.854;2024-03-22T02:25:16;0.90;;;0.90;;
18224;SDS011;9237;48.590;8.854;2024-03-22T02:27:42;0.80;;;0.80;;
18224;SDS011;9237;48.590;8.854;2024-03-22T02:30:08;0.80;;;0.80;;
18224;SDS011;9237;48.590;8.854;2024-03-22T02:32:35;0.80;;;0.80;;
18224;SDS011;9237;48.590;8.854;2024-03-22T02:35:02;0.80;;;0.80;;
18224;SDS011;9237;48.590;8.854;2024-03-22T02:37:29;0.80;;;0.80;;
18224;SDS011;9237;48.590;8.854;2024-03-22T02:39:55;0.90;;;0.90;;
18224;SDS011;9237;48.590;8.854;2024-03-22T02:42:23;0.90;;;0.90;;
18224;SDS011;9237;48.590;8.854;2024-03-22T02:44:49;0.80;;;0.80;;
18224;SDS011;9237;48.590;8.854;2024-03-22T02:47:15;0.80;;;0.80;;
18224;SDS011;9237;48.590;8.854;2024-03-22T02:49:41;0.90;;;0.90;;
18224;SDS011;9237;48.590;8.854;2024-03-22T02:52:08;0.90;;;0.90;;
18224;SDS011;9237;48.590;8.854;2024-03-22T02:54:34;0.87;;;0.87;;
18224;SDS011;9237;48.590;8.854;2024-03-22T02:57:00;1.00;;;1.00;;
18224;SDS011;9237;48.590;8.854;2024-03-22T02:59:28;0.80;;;0.80;;
18224;SDS011;9237;48.590;8.854;2024-03-22T03:01:55;0.80;;;0.80;;
18224;SDS011;9237;48.590;8.854;2024-03-22T03:04:21;0.90;;;0.90;;
18224;SDS011;9237;48.590;8.854;2024-03-22T03:06:47;0.70;;;0.70;;
18224;SDS011;9237;48.590;8.854;2024-03-22T03:09:13;0.90;;;0.90;;
18224;SDS011;9237;48.590;8.854;2024-03-22T03:11:40;1.00;;;1.00;;
18224;SDS011;9237;48.590;8.854;2024-03-22T03:14:06;0.90;;;0.90;;
18224;SDS011;9237;48.590;8.854;2024-03-22T03:16:34;0.90;;;0.90;;
18224;SDS011;9237;48.590;8.854;2024-03-22T03:19:00;0.90;;;0.90;;
18224;SDS011;9237;48.590;8.854;2024-03-22T03:21:26;0.90;;;0.90;;
18224;SDS011;9237;48.590;8.854;2024-03-22T03:23:52;0.80;;;0.80;;
18224;SDS011;9237;48.590;8.854;2024-03-22T03:26:19;0.80;;;0.80;;
18224;SDS011;9237;48.590;8.854;2024-03-22T03:28:45;0.90;;;0.90;;
18224;SDS011;9237;48.590;8.854;2024-03-22T03:31:11;0.80;;;0.80;;
18224;SDS011;9237;48.590;8.854;2024-03-22T03:33:39;0.80;;;0.80;;
18224;SDS011;9237;48.590;8.854;2024-03-22T03:36:05;0.70;;;0.70;;
18224;SDS011;9237;48.590;8.854;2024-03-22T03:38:31;0.90;;;0.90;;
18224;SDS011;9237;48.590;8.854;2024-03-22T03:40:58;0.80;;;0.80;;
18224;SDS011;9237;48.590;8.854;2024-03-22T03:43:24;0.90;;;0.90;;
18224;SDS011;9237;48.590;8.854;2024-03-22T03:45:51;0.70;;;0.70;;
18224;SDS011;9237;48.590;8.854;2024-03-22T03:48:19;0.80;;;0.80;;
18224;SDS011;9237;48.590;8.854;2024-03-22T03:50:52;0.70;;;0.70;;
18224;SDS011;9237;48.590;8.854;2024-03-22T03:53:18;0.80;;;0.80;;
18224;SDS011;9237;48.590;8.854;2024-03-22T03:55:45;0.80;;;0.80;;
18224;SDS011;9237;48.590;8.854;2024-03-22T03:58:11;0.80;;;0.80;;
18224;SDS011;9237;48.590;8.854;2024-03-22T04:00:38;0.90;;;0.90;;
18224;SDS011;9237;48.590;8.854;2024-03-22T04:03:04;0.80;;;0.80;;
18224;SDS011;9237;48.590;8.854;2024-03-22T04:05:30;0.80;;;0.80;;
18224;SDS011;9237;48.590;8.854;2024-03-22T04:07:58;0.70;;;0.70;;
18224;SDS011;9237;48.590;8.854;2024-03-22T04:10:24;0.90;;;0.90;;
18224;SDS011;9237;48.590;8.854;2024-03-22T04:12:50;0.80;;;0.80;;
18224;SDS011;9237;48.590;8.854;2024-03-22T04:15:17;0.80;;;0.80;;
18224;SDS011;9237;48.590;8.854;2024-03-22T04:17:43;0.97;;;0.97;;
18224;SDS011;9237;48.590;8.854;2024-03-22T04:20:10;0.80;;;0.80;;
18224;SDS011;9237;48.590;8.854;2024-03-22T04:22:36;0.80;;;0.80;;
18224;SDS011;9237;48.590;8.854;2024-03-22T04:25:05;0.90;;;0.90;;
18224;SDS011;9237;48.590;8.854;2024-03-22T04:27:31;0.87;;;0.87;;
18224;SDS011;9237;48.590;8.854;2024-03-22T04:30:01;0.80;;;0.80;;
18224;SDS011;9237;48.590;8.854;2024-03-22T04:32:27;0.77;;;0.77;;
18224;SDS011;9237;48.590;8.854;2024-03-22T04:34:54;0.80;;;0.80;;
18224;SDS011;9237;48.590;8.854;2024-03-22T04:37:20;0.80;;;0.80;;
18224;SDS011;9237;48.590;8.854;2024-03-22T04:39:47;0.90;;;0.90;;
18224;SDS011;9237;48.590;8.854;2024-03-22T04:42:15;0.80;;;0.80;;
18224;SDS011;9237;48.590;8.854;2024-03-22T04:44:41;0.70;;;0.70;;
18224;SDS011;9237;48.590;8.854;2024-03-22T04:47:08;0.80;;;0.80;;
18224;SDS011;9237;48.590;8.854;2024-03-22T04:49:34;0.90;;;0.90;;
18224;SDS011;9237;48.590;8.854;2024-03-22T04:52:00;0.70;;;0.70;;
18224;SDS011;9237;48.590;8.854;2024-03-22T04:54:27;0.80;;;0.80;;
18224;SDS011;9237;48.590;8.854;2024-03-22T04:56:53;0.70;;;0.70;;
18224;SDS011;9237;48.590;8.854;2024-03-22T04:59:21;0.80;;;0.80;;
18224;SDS011;9237;48.590;8.854;2024-03-22T05:01:47;1.00;;;1.00;;
18224;SDS011;9237;48.590;8.854;2024-03-22T05:04:14;0.80;;;0.80;;
18224;SDS011;9237;48.590;8.854;2024-03-22T05:06:39;0.80;;;0.80;;
18224;SDS011;9237;48.590;8.854;2024-03-22T05:09:06;0.80;;;0.80;;
18224;SDS011;9237;48.590;8.854;2024-03-22T05:11:35;0.80;;;0.80;;
18224;SDS011;9237;48.590;8.854;2024-03-22T05:14:01;1.00;;;1.00;;
18224;SDS011;9237;48.590;8.854;2024-03-22T05:16:29;0.80;;;0.80;;
18224;SDS011;9237;48.590;8.854;2024-03-22T05:18:56;0.80;;;0.80;;
18224;SDS011;9237;48.590;8.854;2024-03-22T05:21:21;0.80;;;0.80;;
18224;SDS011;9237;48.590;8.854;2024-03-22T05:23:48;0.80;;;0.80;;
18224;SDS011;9237;48.590;8.854;2024-03-22T05:26:14;0.70;;;0.70;;
18224;SDS011;9237;48.590;8.854;2024-03-22T05:28:41;0.80;;;0.80;;
18224;SDS011;9237;48.590;8.854;2024-03-22T05:31:07;0.80;;;0.80;;
18224;SDS011;9237;48.590;8.854;2024-03-22T05:33:35;0.90;;;0.90;;
18224;SDS011;9237;48.590;8.854;2024-03-22T05:36:01;0.70;;;0.70;;
18224;SDS011;9237;48.590;8.854;2024-03-22T05:38:28;0.80;;;0.80;;
18224;SDS011;9237;48.590;8.854;2024-03-22T05:40:54;0.80;;;0.80;;
18224;SDS011;9237;48.590;8.854;2024-03-22T05:43:20;0.80;;;0.80;;
18224;SDS011;9237;48.590;8.854;2024-03-22T05:45:46;0.90;;;0.90;;
18224;SDS011;9237;48.590;8.854;2024-03-22T05:48:13;0.70;;;0.70;;
18224;SDS011;9237;48.590;8.854;2024-03-22T05:50:41;0.80;;;0.80;;
18224;SDS011;9237;48.590;8.854;2024-03-22T05:53:08;0.80;;;0.80;;
18224;SDS011;9237;48.590;8.854;2024-03-22T05:55:34;0.80;;;0.80;;
18224;SDS011;9237;48.590;8.854;2024-03-22T05:58:00;0.80;;;0.80;;
18224;SDS011;9237;48.590;8.854;2024-03-22T06:00:26;0.80;;;0.80;;
18224;SDS011;9237;48.590;8.854;2024-03-22T06:02:53;0.80;;;0.80;;
18224;SDS011;9237;48.590;8.854;2024-03-22T06:05:19;0.80;;;0.80;;
18224;SDS011;9237;48.590;8.854;2024-03-22T06:07:47;0.80;;;0.80;;
18224;SDS011;9237;48.590;8.854;2024-03-22T06:10:13;0.80;;;0.80;;
18224;SDS011;9237;48.590;8.854;2024-03-22T06:12:41;0.80;;;0.80;;
18224;SDS011;9237;48.590;8.854;2024-03-22T06:15:09;0.80;;;0.80;;
18224;SDS011;9237;48.590;8.854;2024-03-22T06:17:36;0.70;;;0.70;;
18224;SDS011;9237;48.590;8.854;2024-03-22T06:20:03;0.90;;;0.90;;
18224;SDS011;9237;48.590;8.854;2024-03-22T06:22:30;0.90;;;0.90;;
18224;SDS011;9237;48.590;8.854;2024-03-22T06:24:58;0.80;;;0.80;;
18224;SDS011;9237;48.590;8.854;2024-03-22T06:27:24;0.83;;;0.83;;
18224;SDS011;9237;48.590;8.854;2024-03-22T06:29:51;0.80;;;0.80;;
18224;SDS011;9237;48.590;8.854;2024-03-22T06:32:17;0.80;;;0.80;;
18224;SDS011;9237;48.590;8.854;2024-03-22T06:34:43;0.80;;;0.80;;
18224;SDS011;9237;48.590;8.854;2024-03-22T06:37:09;0.70;;;0.70;;
18224;SDS011;9237;48.590;8.854;2024-03-22T06:39:36;0.70;;;0.70;;
18224;SDS011;9237;48.590;8.854;2024-03-22T06:42:03;0.80;;;0.80;;
18224;SDS011;9237;48.590;8.854;2024-03-22T06:44:30;0.80;;;0.80;;
18224;SDS011;9237;48.590;8.854;2024-03-22T06:46:56;0.70;;;0.70;;
18224;SDS011;9237;48.590;8.854;2024-03-22T06:49:23;0.80;;;0.80;;
18224;SDS011;9237;48.590;8.854;2024-03-22T06:51:50;0.70;;;0.70;;
18224;SDS011;9237;48.590;8.854;2024-03-22T06:54:17;0.70;;;0.70;;
18224;SDS011;9237;48.590;8.854;2024-03-22T06:56:42;0.70;;;0.70;;
18224;SDS011;9237;48.590;8.854;2024-03-22T06:59:11;0.73;;;0.73;;
18224;SDS011;9237;48.590;8.854;2024-03-22T07:01:36;0.70;;;0.70;;
18224;SDS011;9237;48.590;8.854;2024-03-22T07:04:03;0.80;;;0.80;;
18224;SDS011;9237;48.590;8.854;2024-03-22T07:06:29;0.80;;;0.80;;
18224;SDS011;9237;48.590;8.854;2024-03-22T07:08:56;0.70;;;0.70;;
18224;SDS011;9237;48.590;8.854;2024-03-22T07:11:22;0.80;;;0.80;;
18224;SDS011;9237;48.590;8.854;2024-03-22T07:13:48;0.60;;;0.60;;
18224;SDS011;9237;48.590;8.854;2024-03-22T07:16:15;0.80;;;0.80;;
18224;SDS011;9237;48.590;8.854;2024-03-22T07:18:42;0.70;;;0.70;;
18224;SDS011;9237;48.590;8.854;2024-03-22T07:21:08;0.80;;;0.80;;
18224;SDS011;9237;48.590;8.854;2024-03-22T07:23:35;0.80;;;0.80;;
18224;SDS011;9237;48.590;8.854;2024-03-22T07:26:01;0.60;;;0.60;;
18224;SDS011;9237;48.590;8.854;2024-03-22T07:28:30;0.80;;;0.80;;
18224;SDS011;9237;48.590;8.854;2024-03-22T07:30:56;0.80;;;0.80;;
18224;SDS011;9237;48.590;8.854;2024-03-22T07:33:24;0.80;;;0.80;;
18224;SDS011;9237;48.590;8.854;2024-03-22T07:35:50;0.70;;;0.70;;
18224;SDS011;9237;48.590;8.854;2024-03-22T07:38:19;0.60;;;0.60;;
18224;SDS011;9237;48.590;8.854;2024-03-22T07:40:45;0.70;;;0.70;;
18224;SDS011;9237;48.590;8.854;2024-03-22T07:43:11;0.80;;;0.80;;
18224;SDS011;9237;48.590;8.854;2024-03-22T07:45:39;0.70;;;0.70;;
18224;SDS011;9237;48.590;8.854;2024-03-22T07:48:06;0.70;;;0.70;;
18224;SDS011;9237;48.590;8.854;2024-03-22T07:50:34;0.70;;;0.70;;
18224;SDS011;9237;48.590;8.854;2024-03-22T07:53:00;0.70;;;0.70;;
18224;SDS011;9237;48.590;8.854;2024-03-22T07:55:26;0.70;;;0.70;;
18224;SDS011;9237;48.590;8.854;2024-03-22T07:57:53;0.70;;;0.70;;
18224;SDS011;9237;48.590;8.854;2024-03-22T08:00:19;0.70;;;0.70;;
18224;SDS011;9237;48.590;8.854;2024-03-22T08:02:46;0.70;;;0.70;;
18224;SDS011;9237;48.590;8.854;2024-03-22T08:05:11;0.70;;;0.70;;
18224;SDS011;9237;48.590;8.854;2024-03-22T08:07:40;0.70;;;0.70;;
18224;SDS011;9237;48.590;8.854;2024-03-22T08:10:06;0.70;;;0.70;;
18224;SDS011;9237;48.590;8.854;2024-03-22T08:12:33;0.60;;;0.60;;
18224;SDS011;9237;48.590;8.854;2024-03-22T08:14:59;0.70;;;0.70;;
18224;SDS011;9237;48.590;8.854;2024-03-22T08:17:26;0.70;;;0.70;;
18224;SDS011;9237;48.590;8.854;2024-03-22T08:19:52;0.60;;;0.60;;
18224;SDS011;9237;48.590;8.854;2024-03-22T08:22:19;0.63;;;0.63;;
18224;SDS011;9237;48.590;8.854;2024-03-22T08:24:46;0.60;;;0.60;;
18224;SDS011;9237;48.590;8.854;2024-03-22T08:27:13;0.70;;;0.70;;
18224;SDS011;9237;48.590;8.854;2024-03-22T08:29:39;0.60;;;0.60;;
18224;SDS011;9237;48.590;8.854;2024-03-22T08:32:06;0.60;;;0.60;;
18224;SDS011;9237;48.590;8.854;2024-03-22T08:34:32;0.60;;;0.60;;
18224;SDS011;9237;48.590;8.854;2024-03-22T08:36:59;0.65;;;0.65;;
18224;SDS011;9237;48.590;8.854;2024-03-22T08:39:25;0.60;;;0.60;;
18224;SDS011;9237;48.590;8.854;2024-03-22T08:41:53;0.60;;;0.60;;
18224;SDS011;9237;48.590;8.854;2024-03-22T08:44:20;0.60;;;0.60;;
18224;SDS011;9237;48.590;8.854;2024-03-22T08:46:46;0.60;;;0.60;;
18224;SDS011;9237;48.590;8.854;2024-03-22T08:49:12;0.60;;;0.60;;
18224;SDS011;9237;48.590;8.854;2024-03-22T08:51:39;0.60;;;0.60;;
18224;SDS011;9237;48.590;8.854;2024-03-22T08:54:05;0.63;;;0.63;;
18224;SDS011;9237;48.590;8.854;2024-03-22T08:56:32;0.60;;;0.60;;
18224;SDS011;9237;48.590;8.854;2024-03-22T08:58:59;0.60;;;0.60;;
18224;SDS011;9237;48.590;8.854;2024-03-22T09:01:25;0.60;;;0.60;;
18224;SDS011;9237;48.590;8.854;2024-03-22T09:03:51;0.60;;;0.60;;
18224;SDS011;9237;48.590;8.854;2024-03-22T09:06:18;0.60;;;0.60;;
18224;SDS011;9237;48.590;8.854;2024-03-22T09:08:44;0.50;;;0.50;;
18224;SDS011;9237;48.590;8.854;2024-03-22T09:11:11;0.50;;;0.50;;
18224;SDS011;9237;48.590;8.854;2024-03-22T09:13:37;0.50;;;0.50;;
18224;SDS011;9237;48.590;8.854;2024-03-22T09:16:06;0.50;;;0.50;;
18224;SDS011;9237;48.590;8.854;2024-03-22T09:18:31;0.50;;;0.50;;
18224;SDS011;9237;48.590;8.854;2024-03-22T09:20:58;0.40;;;0.40;;
18224;SDS011;9237;48.590;8.854;2024-03-22T09:23:24;0.50;;;0.50;;
18224;SDS011;9237;48.590;8.854;2024-03-22T09:25:51;0.50;;;0.50;;
18224;SDS011;9237;48.590;8.854;2024-03-22T09:28:17;0.40;;;0.40;;
18224;SDS011;9237;48.590;8.854;2024-03-22T09:30:43;0.40;;;0.40;;
18224;SDS011;9237;48.590;8.854;2024-03-22T09:33:11;0.40;;;0.40;;
18224;SDS011;9237;48.590;8.854;2024-03-22T09:35:38;0.40;;;0.40;;
18224;SDS011;9237;48.590;8.854;2024-03-22T09:38:03;0.50;;;0.50;;
18224;SDS011;9237;48.590;8.854;2024-03-22T09:40:30;0.50;;;0.50;;
18224;SDS011;9237;48.590;8.854;2024-03-22T09:42:57;0.50;;;0.50;;
18224;SDS011;9237;48.590;8.854;2024-03-22T09:45:29;0.50;;;0.50;;
18224;SDS011;9237;48.590;8.854;2024-03-22T09:47:56;0.50;;;0.50;;
18224;SDS011;9237;48.590;8.854;2024-03-22T09:50:25;0.50;;;0.50;;
18224;SDS011;9237;48.590;8.854;2024-03-22T09:52:51;0.52;;;0.52;;
18224;SDS011;9237;48.590;8.854;2024-03-22T09:55:20;0.50;;;0.50;;
18224;SDS011;9237;48.590;8.854;2024-03-22T09:57:48;0.52;;;0.52;;
18224;SDS011;9237;48.590;8.854;2024-03-22T10:00:16;0.50;;;0.50;;
18224;SDS011;9237;48.590;8.854;2024-03-22T10:02:44;0.50;;;0.50;;
18224;SDS011;9237;48.590;8.854;2024-03-22T10:05:12;0.50;;;0.50;;
18224;SDS011;9237;48.590;8.854;2024-03-22T10:07:39;0.50;;;0.50;;
18224;SDS011;9237;48.590;8.854;2024-03-22T10:10:07;0.50;;;0.50;;
18224;SDS011;9237;48.590;8.854;2024-03-22T10:12:33;0.50;;;0.50;;
18224;SDS011;9237;48.590;8.854;2024-03-22T10:15:00;0.50;;;0.50;;
18224;SDS011;9237;48.590;8.854;2024-03-22T10:17:26;0.50;;;0.50;;
18224;SDS011;9237;48.590;8.854;2024-03-22T10:19:53;0.50;;;0.50;;
18224;SDS011;9237;48.590;8.854;2024-03-22T10:22:19;0.50;;;0.50;;
18224;SDS011;9237;48.590;8.854;2024-03-22T10:24:47;0.50;;;0.50;;
18224;SDS011;9237;48.590;8.854;2024-03-22T10:27:14;0.50;;;0.50;;
18224;SDS011;9237;48.590;8.854;2024-03-22T10:29:40;0.40;;;0.40;;
18224;SDS011;9237;48.590;8.854;2024-03-22T10:32:07;0.40;;;0.40;;
18224;SDS011;9237;48.590;8.854;2024-03-22T10:34:36;0.40;;;0.40;;
18224;SDS011;9237;48.590;8.854;2024-03-22T10:37:02;0.45;;;0.45;;
18224;SDS011;9237;48.590;8.854;2024-03-22T10:39:30;0.40;;;0.40;;
18224;SDS011;9237;48.590;8.854;2024-03-22T10:41:57;0.40;;;0.40;;
18224;SDS011;9237;48.590;8.854;2024-03-22T10:44:24;0.40;;;0.40;;
18224;SDS011;9237;48.590;8.854;2024-03-22T10:46:50;0.47;;;0.47;;
18224;SDS011;9237;48.590;8.854;2024-03-22T10:49:22;0.40;;;0.40;;
18224;SDS011;9237;48.590;8.854;2024-03-22T10:51:49;0.47;;;0.47;;
18224;SDS011;9237;48.590;8.854;2024-03-22T10:54:19;0.40;;;0.40;;
18224;SDS011;9237;48.590;8.854;2024-03-22T10:56:47;0.40;;;0.40;;
18224;SDS011;9237;48.590;8.854;2024-03-22T10:59:19;0.50;;;0.50;;
18224;SDS011;9237;48.590;8.854;2024-03-22T11:01:45;0.50;;;0.50;;
18224;SDS011;9237;48.590;8.854;2024-03-22T11:04:14;0.50;;;0.50;;
18224;SDS011;9237;48.590;8.854;2024-03-22T11:06:40;0.47;;;0.47;;
18224;SDS011;9237;48.590;8.854;2024-03-22T11:09:17;0.50;;;0.50;;
18224;SDS011;9237;48.590;8.854;2024-03-22T11:11:45;0.50;;;0.50;;
18224;SDS011;9237;48.590;8.854;2024-03-22T11:14:11;0.50;;;0.50;;
18224;SDS011;9237;48.590;8.854;2024-03-22T11:16:39;0.55;;;0.55;;
18224;SDS011;9237;48.590;8.854;2024-03-22T11:19:09;0.50;;;0.50;;
18224;SDS011;9237;48.590;8.854;2024-03-22T11:21:35;0.50;;;0.50;;
18224;SDS011;9237;48.590;8.854;2024-03-22T11:24:02;0.60;;;0.60;;
18224;SDS011;9237;48.590;8.854;2024-03-22T11:26:28;0.60;;;0.60;;
18224;SDS011;9237;48.590;8.854;2024-03-22T11:28:55;0.60;;;0.60;;
18224;SDS011;9237;48.590;8.854;2024-03-22T11:31:21;0.50;;;0.50;;
18224;SDS011;9237;48.590;8.854;2024-03-22T11:33:53;0.50;;;0.50;;
18224;SDS011;9237;48.590;8.854;2024-03-22T11:36:19;0.50;;;0.50;;
18224;SDS011;9237;48.590;8.854;2024-03-22T11:38:47;0.55;;;0.55;;
18224;SDS011;9237;48.590;8.854;2024-03-22T11:41:14;0.60;;;0.60;;
18224;SDS011;9237;48.590;8.854;2024-03-22T11:43:43;0.50;;;0.50;;
18224;SDS011;9237;48.590;8.854;2024-03-22T11:46:10;0.50;;;0.50;;
18224;SDS011;9237;48.590;8.854;2024-03-22T11:48:38;0.50;;;0.50;;
18224;SDS011;9237;48.590;8.854;2024-03-22T11:51:06;0.50;;;0.50;;
18224;SDS011;9237;48.590;8.854;2024-03-22T11:53:33;0.50;;;0.50;;
18224;SDS011;9237;48.590;8.854;2024-03-22T11:56:00;0.50;;;0.50;;
18224;SDS011;9237;48.590;8.854;2024-03-22T11:58:28;0.50;;;0.50;;
18224;SDS011;9237;48.590;8.854;2024-03-22T12:00:55;0.50;;;0.50;;
18224;SDS011;9237;48.590;8.854;2024-03-22T12:03:22;0.50;;;0.50;;
18224;SDS011;9237;48.590;8.854;2024-03-22T12:05:48;0.50;;;0.50;;
18224;SDS011;9237;48.590;8.854;2024-03-22T12:08:17;0.50;;;0.50;;
18224;SDS011;9237;48.590;8.854;2024-03-22T12:10:43;0.50;;;0.50;;
18224;SDS011;9237;48.590;8.854;2024-03-22T12:13:10;0.50;;;0.50;;
18224;SDS011;9237;48.590;8.854;2024-03-22T12:15:36;0.52;;;0.52;;
18224;SDS011;9237;48.590;8.854;2024-03-22T12:18:02;0.50;;;0.50;;
18224;SDS011;9237;48.590;8.854;2024-03-22T12:20:28;0.50;;;0.50;;
18224;SDS011;9237;48.590;8.854;2024-03-22T12:22:55;0.50;;;0.50;;
18224;SDS011;9237;48.590;8.854;2024-03-22T12:25:22;0.50;;;0.50;;
18224;SDS011;9237;48.590;8.854;2024-03-22T12:27:49;0.50;;;0.50;;
18224;SDS011;9237;48.590;8.854;2024-03-22T12:30:15;0.50;;;0.50;;
18224;SDS011;9237;48.590;8.854;2024-03-22T12:32:42;0.50;;;0.50;;
18224;SDS011;9237;48.590;8.854;2024-03-22T12:35:08;0.50;;;0.50;;
18224;SDS011;9237;48.590;8.854;2024-03-22T12:37:36;0.60;;;0.60;;
18224;SDS011;9237;48.590;8.854;2024-03-22T12:40:02;0.60;;;0.60;;
18224;SDS011;9237;48.590;8.854;2024-03-22T12:42:30;0.60;;;0.60;;
18224;SDS011;9237;48.590;8.854;2024-03-22T12:44:56;0.60;;;0.60;;
18224;SDS011;9237;48.590;8.854;2024-03-22T12:47:23;0.60;;;0.60;;
18224;SDS011;9237;48.590;8.854;2024-03-22T12:49:48;0.50;;;0.50;;
18224;SDS011;9237;48.590;8.854;2024-03-22T12:52:15;0.57;;;0.57;;
18224;SDS011;9237;48.590;8.854;2024-03-22T12:54:41;0.50;;;0.50;;
18224;SDS011;9237;48.590;8.854;2024-03-22T12:57:08;0.52;;;0.52;;
18224;SDS011;9237;48.590;8.854;2024-03-22T12:59:36;0.50;;;0.50;;
18224;SDS011;9237;48.590;8.854;2024-03-22T13:02:03;0.60;;;0.60;;
18224;SDS011;9237;48.590;8.854;2024-03-22T13:04:29;0.52;;;0.52;;
18224;SDS011;9237;48.590;8.854;2024-03-22T13:06:56;0.50;;;0.50;;
18224;SDS011;9237;48.590;8.854;2024-03-22T13:09:22;0.50;;;0.50;;
18224;SDS011;9237;48.590;8.854;2024-03-22T13:11:49;0.40;;;0.40;;
18224;SDS011;9237;48.590;8.854;2024-03-22T13:14:15;0.50;;;0.50;;
18224;SDS011;9237;48.590;8.854;2024-03-22T13:16:43;0.50;;;0.50;;
18224;SDS011;9237;48.590;8.854;2024-03-22T13:19:11;0.40;;;0.40;;
18224;SDS011;9237;48.590;8.854;2024-03-22T13:21:39;0.40;;;0.40;;
18224;SDS011;9237;48.590;8.854;2024-03-22T13:24:05;0.30;;;0.30;;
18224;SDS011;9237;48.590;8.854;2024-03-22T13:26:33;0.40;;;0.40;;
18224;SDS011;9237;48.590;8.854;2024-03-22T13:28:58;0.40;;;0.40;;
18224;SDS011;9237;48.590;8.854;2024-03-22T13:31:25;0.40;;;0.40;;
18224;SDS011;9237;48.590;8.854;2024-03-22T13:33:52;0.47;;;0.47;;
18224;SDS011;9237;48.590;8.854;2024-03-22T13:36:19;0.40;;;0.40;;
18224;SDS011;9237;48.590;8.854;2024-03-22T13:38:45;0.60;;;0.60;;
18224;SDS011;9237;48.590;8.854;2024-03-22T13:41:12;0.50;;;0.50;;
18224;SDS011;9237;48.590;8.854;2024-03-22T13:43:38;0.50;;;0.50;;
18224;SDS011;9237;48.590;8.854;2024-03-22T13:46:05;0.60;;;0.60;;
18224;SDS011;9237;48.590;8.854;2024-03-22T13:48:31;0.60;;;0.60;;
18224;SDS011;9237;48.590;8.854;2024-03-22T13:50:59;0.50;;;0.50;;
18224;SDS011;9237;48.590;8.854;2024-03-22T13:53:25;0.50;;;0.50;;
18224;SDS011;9237;48.590;8.854;2024-03-22T13:55:53;0.40;;;0.40;;
18224;SDS011;9237;48.590;8.854;2024-03-22T13:58:19;0.50;;;0.50;;
18224;SDS011;9237;48.590;8.854;2024-03-22T14:00:47;0.50;;;0.50;;
18224;SDS011;9237;48.590;8.854;2024-03-22T14:03:13;0.50;;;0.50;;
18224;SDS011;9237;48.590;8.854;2024-03-22T14:05:39;0.55;;;0.55;;
18224;SDS011;9237;48.590;8.854;2024-03-22T14:08:07;0.50;;;0.50;;
18224;SDS011;9237;48.590;8.854;2024-03-22T14:10:33;0.60;;;0.60;;
18224;SDS011;9237;48.590;8.854;2024-03-22T14:13:01;0.50;;;0.50;;
18224;SDS011;9237;48.590;8.854;2024-03-22T14:15:27;0.57;;;0.57;;
18224;SDS011;9237;48.590;8.854;2024-03-22T14:17:56;0.60;;;0.60;;
18224;SDS011;9237;48.590;8.854;2024-03-22T14:20:22;0.60;;;0.60;;
18224;SDS011;9237;48.590;8.854;2024-03-22T14:22:50;0.60;;;0.60;;
18224;SDS011;9237;48.590;8.854;2024-03-22T14:25:17;0.60;;;0.60;;
18224;SDS011;9237;48.590;8.854;2024-03-22T14:27:44;0.60;;;0.60;;
18224;SDS011;9237;48.590;8.854;2024-03-22T14:30:11;0.60;;;0.60;;
18224;SDS011;9237;48.590;8.854;2024-03-22T14:32:39;0.60;;;0.60;;
18224;SDS011;9237;48.590;8.854;2024-03-22T14:35:06;0.60;;;0.60;;
18224;SDS011;9237;48.590;8.854;2024-03-22T14:37:33;0.50;;;0.50;;
18224;SDS011;9237;48.590;8.854;2024-03-22T14:39:59;0.60;;;0.60;;
18224;SDS011;9237;48.590;8.854;2024-03-22T14:42:27;0.50;;;0.50;;
18224;SDS011;9237;48.590;8.854;2024-03-22T14:44:53;0.50;;;0.50;;
18224;SDS011;9237;48.590;8.854;2024-03-22T14:47:20;0.60;;;0.60;;
18224;SDS011;9237;48.590;8.854;2024-03-22T14:49:48;0.60;;;0.60;;
18224;SDS011;9237;48.590;8.854;2024-03-22T14:52:16;0.60;;;0.60;;
18224;SDS011;9237;48.590;8.854;2024-03-22T14:54:42;0.50;;;0.50;;
18224;SDS011;9237;48.590;8.854;2024-03-22T14:57:09;0.60;;;0.60;;